sensor_id;sensor_type;location;lat;lon;timestamp;temperature;humidity
14901;DHT22;7542;49.078;9.194;2023-07-20T00:00:40;28.80;41.90
14901;DHT22;7542;49.078;9.194;2023-07-20T00:01:42;28.80;41.90
14901;DHT22;7542;49.078;9.194;2023-07-20T00:02:49;28.80;41.90
14901;DHT22;7542;49.078;9.194;2023-07-20T00:03:52;28.70;41.90
14901;DHT22;7542;49.078;9.194;2023-07-20T00:04:57;28.70;41.90
14901;DHT22;7542;49.078;9.194;2023-07-20T00:05:59;28.80;41.90
14901;DHT22;7542;49.078;9.194;2023-07-20T00:07:01;28.70;42.00
14901;DHT22;7542;49.078;9.194;2023-07-20T00:08:03;28.70;42.00
14901;DHT22;7542;49.078;9.194;2023-07-20T00:09:06;28.70;42.10
14901;DHT22;7542;49.078;9.194;2023-07-20T00:10:09;28.70;42.20
14901;DHT22;7542;49.078;9.194;2023-07-20T00:11:11;28.70;42.20
14901;DHT22;7542;49.078;9.194;2023-07-20T00:12:15;28.60;42.30
14901;DHT22;7542;49.078;9.194;2023-07-20T00:13:17;28.60;42.40
14901;DHT22;7542;49.078;9.194;2023-07-20T00:14:20;28.60;42.50
14901;DHT22;7542;49.078;9.194;2023-07-20T00:15:23;28.60;42.40
14901;DHT22;7542;49.078;9.194;2023-07-20T00:16:25;28.60;42.30
14901;DHT22;7542;49.078;9.194;2023-07-20T00:17:28;28.60;42.40
14901;DHT22;7542;49.078;9.194;2023-07-20T00:18:30;28.60;42.40
14901;DHT22;7542;49.078;9.194;2023-07-20T00:19:32;28.60;42.50
14901;DHT22;7542;49.078;9.194;2023-07-20T00:20:34;28.60;42.50
14901;DHT22;7542;49.078;9.194;2023-07-20T00:21:36;28.60;42.50
14901;DHT22;7542;49.078;9.194;2023-07-20T00:22:42;28.50;42.50
14901;DHT22;7542;49.078;9.194;2023-07-20T00:23:44;28.50;42.50
14901;DHT22;7542;49.078;9.194;2023-07-20T00:24:46;28.50;42.60
14901;DHT22;7542;49.078;9.194;2023-07-20T00:25:49;28.40;42.50
14901;DHT22;7542;49.078;9.194;2023-07-20T00:26:51;28.40;42.60
14901;DHT22;7542;49.078;9.194;2023-07-20T00:27:53;28.50;42.70
14901;DHT22;7542;49.078;9.194;2023-07-20T00:28:55;28.40;42.70
14901;DHT22;7542;49.078;9.194;2023-07-20T00:29:57;28.50;42.80
14901;DHT22;7542;49.078;9.194;2023-07-20T00:31:00;28.50;42.80
14901;DHT22;7542;49.078;9.194;2023-07-20T00:32:03;28.50;42.80
14901;DHT22;7542;49.078;9.194;2023-07-20T00:33:10;28.40;42.80
14901;DHT22;7542;49.078;9.194;2023-07-20T00:34:13;28.40;42.90
14901;DHT22;7542;49.078;9.194;2023-07-20T00:35:16;28.30;42.90
14901;DHT22;7542;49.078;9.194;2023-07-20T00:36:18;28.30;42.90
14901;DHT22;7542;49.078;9.194;2023-07-20T00:37:20;28.40;43.00
14901;DHT22;7542;49.078;9.194;2023-07-20T00:38:22;28.30;43.00
14901;DHT22;7542;49.078;9.194;2023-07-20T00:39:24;28.30;43.10
14901;DHT22;7542;49.078;9.194;2023-07-20T00:40:27;28.30;43.10
14901;DHT22;7542;49.078;9.194;2023-07-20T00:41:28;28.30;43.00
14901;DHT22;7542;49.078;9.194;2023-07-20T00:42:31;28.30;43.10
14901;DHT22;7542;49.078;9.194;2023-07-20T00:43:33;28.30;43.10
14901;DHT22;7542;49.078;9.194;2023-07-20T00:44:35;28.30;43.10
14901;DHT22;7542;49.078;9.194;2023-07-20T00:45:38;28.30;43.20
14901;DHT22;7542;49.078;9.194;2023-07-20T00:46:40;28.30;43.30
14901;DHT22;7542;49.078;9.194;2023-07-20T00:47:43;28.30;43.30
14901;DHT22;7542;49.078;9.194;2023-07-20T00:48:46;28.30;43.20
14901;DHT22;7542;49.078;9.194;2023-07-20T00:49:48;28.30;43.20
14901;DHT22;7542;49.078;9.194;2023-07-20T00:50:52;28.30;43.20
14901;DHT22;7542;49.078;9.194;2023-07-20T00:51:54;24.40;41.50
14901;DHT22;7542;49.078;9.194;2023-07-20T00:52:57;28.30;43.20
14901;DHT22;7542;49.078;9.194;2023-07-20T00:53:59;28.30;43.20
14901;DHT22;7542;49.078;9.194;2023-07-20T00:55:01;28.30;43.30
14901;DHT22;7542;49.078;9.194;2023-07-20T00:56:04;28.30;43.30
14901;DHT22;7542;49.078;9.194;2023-07-20T00:57:07;28.20;43.20
14901;DHT22;7542;49.078;9.194;2023-07-20T00:58:09;28.40;43.30
14901;DHT22;7542;49.078;9.194;2023-07-20T00:59:12;28.20;43.30
14901;DHT22;7542;49.078;9.194;2023-07-20T01:00:15;28.20;43.40
14901;DHT22;7542;49.078;9.194;2023-07-20T01:01:17;28.20;43.40
14901;DHT22;7542;49.078;9.194;2023-07-20T01:02:19;28.20;43.40
14901;DHT22;7542;49.078;9.194;2023-07-20T01:03:22;28.10;43.50
14901;DHT22;7542;49.078;9.194;2023-07-20T01:04:24;28.00;43.50
14901;DHT22;7542;49.078;9.194;2023-07-20T01:05:38;28.10;43.50
14901;DHT22;7542;49.078;9.194;2023-07-20T01:08:40;28.10;43.60
14901;DHT22;7542;49.078;9.194;2023-07-20T01:11:23;28.20;43.50
14901;DHT22;7542;49.078;9.194;2023-07-20T01:12:52;28.10;43.50
14901;DHT22;7542;49.078;9.194;2023-07-20T01:13:57;28.10;43.50
14901;DHT22;7542;49.078;9.194;2023-07-20T01:14:59;27.20;43.00
14901;DHT22;7542;49.078;9.194;2023-07-20T01:16:02;28.10;43.50
14901;DHT22;7542;49.078;9.194;2023-07-20T01:17:04;28.10;43.50
14901;DHT22;7542;49.078;9.194;2023-07-20T01:18:06;28.10;43.50
14901;DHT22;7542;49.078;9.194;2023-07-20T01:19:08;28.10;43.60
14901;DHT22;7542;49.078;9.194;2023-07-20T01:20:13;28.10;43.50
14901;DHT22;7542;49.078;9.194;2023-07-20T01:21:22;28.10;43.60
14901;DHT22;7542;49.078;9.194;2023-07-20T01:24:36;28.10;43.60
14901;DHT22;7542;49.078;9.194;2023-07-20T01:32:17;28.00;43.60
14901;DHT22;7542;49.078;9.194;2023-07-20T01:33:21;28.00;43.70
14901;DHT22;7542;49.078;9.194;2023-07-20T01:34:26;28.00;43.70
14901;DHT22;7542;49.078;9.194;2023-07-20T01:35:31;28.00;43.70
14901;DHT22;7542;49.078;9.194;2023-07-20T01:36:36;28.00;43.80
14901;DHT22;7542;49.078;9.194;2023-07-20T01:37:40;28.00;43.80
14901;DHT22;7542;49.078;9.194;2023-07-20T01:38:45;27.90;43.30
14901;DHT22;7542;49.078;9.194;2023-07-20T01:39:48;28.00;43.80
14901;DHT22;7542;49.078;9.194;2023-07-20T01:40:51;28.00;43.80
14901;DHT22;7542;49.078;9.194;2023-07-20T01:41:55;27.90;43.30
14901;DHT22;7542;49.078;9.194;2023-07-20T01:42:57;27.80;43.30
14901;DHT22;7542;49.078;9.194;2023-07-20T01:43:59;27.90;43.40
14901;DHT22;7542;49.078;9.194;2023-07-20T01:45:02;27.90;43.40
14901;DHT22;7542;49.078;9.194;2023-07-20T01:46:05;27.90;43.40
14901;DHT22;7542;49.078;9.194;2023-07-20T01:47:07;27.80;43.40
14901;DHT22;7542;49.078;9.194;2023-07-20T01:48:09;27.90;43.40
14901;DHT22;7542;49.078;9.194;2023-07-20T01:49:11;27.80;43.40
14901;DHT22;7542;49.078;9.194;2023-07-20T01:50:13;27.80;43.50
14901;DHT22;7542;49.078;9.194;2023-07-20T01:51:15;27.90;43.50
14901;DHT22;7542;49.078;9.194;2023-07-20T01:52:19;27.90;43.50
14901;DHT22;7542;49.078;9.194;2023-07-20T01:53:21;27.90;43.60
14901;DHT22;7542;49.078;9.194;2023-07-20T01:54:23;27.80;43.60
14901;DHT22;7542;49.078;9.194;2023-07-20T01:55:25;27.80;43.60
14901;DHT22;7542;49.078;9.194;2023-07-20T01:56:27;27.80;43.60
14901;DHT22;7542;49.078;9.194;2023-07-20T01:57:29;27.80;43.60
14901;DHT22;7542;49.078;9.194;2023-07-20T01:58:31;27.80;43.70
14901;DHT22;7542;49.078;9.194;2023-07-20T01:59:33;27.80;43.70
14901;DHT22;7542;49.078;9.194;2023-07-20T02:00:37;27.80;43.70
14901;DHT22;7542;49.078;9.194;2023-07-20T02:01:40;27.80;43.70
14901;DHT22;7542;49.078;9.194;2023-07-20T02:02:42;27.80;43.70
14901;DHT22;7542;49.078;9.194;2023-07-20T02:03:44;27.80;43.80
14901;DHT22;7542;49.078;9.194;2023-07-20T02:04:46;27.80;43.70
14901;DHT22;7542;49.078;9.194;2023-07-20T02:05:48;27.80;43.70
14901;DHT22;7542;49.078;9.194;2023-07-20T02:06:51;27.80;43.80
14901;DHT22;7542;49.078;9.194;2023-07-20T02:07:54;27.70;43.80
14901;DHT22;7542;49.078;9.194;2023-07-20T02:08:56;27.80;43.80
14901;DHT22;7542;49.078;9.194;2023-07-20T02:09:57;27.80;43.80
14901;DHT22;7542;49.078;9.194;2023-07-20T02:10:59;27.70;43.80
14901;DHT22;7542;49.078;9.194;2023-07-20T02:12:01;27.80;43.80
14901;DHT22;7542;49.078;9.194;2023-07-20T02:13:03;27.80;43.80
14901;DHT22;7542;49.078;9.194;2023-07-20T02:14:05;27.80;43.80
14901;DHT22;7542;49.078;9.194;2023-07-20T02:15:08;27.80;43.80
14901;DHT22;7542;49.078;9.194;2023-07-20T02:16:10;27.80;43.90
14901;DHT22;7542;49.078;9.194;2023-07-20T02:17:13;27.80;43.90
14901;DHT22;7542;49.078;9.194;2023-07-20T02:18:15;27.70;43.90
14901;DHT22;7542;49.078;9.194;2023-07-20T02:19:17;27.60;43.90
14901;DHT22;7542;49.078;9.194;2023-07-20T02:20:20;27.70;43.90
14901;DHT22;7542;49.078;9.194;2023-07-20T02:21:22;27.70;43.90
14901;DHT22;7542;49.078;9.194;2023-07-20T02:22:24;27.70;44.00
14901;DHT22;7542;49.078;9.194;2023-07-20T02:23:26;27.70;43.90
14901;DHT22;7542;49.078;9.194;2023-07-20T02:24:28;27.70;44.00
14901;DHT22;7542;49.078;9.194;2023-07-20T02:25:30;27.60;44.00
14901;DHT22;7542;49.078;9.194;2023-07-20T02:26:33;27.70;44.00
14901;DHT22;7542;49.078;9.194;2023-07-20T02:27:35;27.60;44.00
14901;DHT22;7542;49.078;9.194;2023-07-20T02:28:38;27.70;44.00
14901;DHT22;7542;49.078;9.194;2023-07-20T02:29:41;27.70;44.00
14901;DHT22;7542;49.078;9.194;2023-07-20T02:30:43;27.70;44.00
14901;DHT22;7542;49.078;9.194;2023-07-20T02:31:45;27.70;44.10
14901;DHT22;7542;49.078;9.194;2023-07-20T02:32:47;27.60;44.00
14901;DHT22;7542;49.078;9.194;2023-07-20T02:33:50;27.60;44.10
14901;DHT22;7542;49.078;9.194;2023-07-20T02:34:52;27.60;44.10
14901;DHT22;7542;49.078;9.194;2023-07-20T02:35:54;27.50;44.10
14901;DHT22;7542;49.078;9.194;2023-07-20T02:36:56;27.60;44.10
14901;DHT22;7542;49.078;9.194;2023-07-20T02:38:00;27.60;44.10
14901;DHT22;7542;49.078;9.194;2023-07-20T02:39:02;27.60;44.10
14901;DHT22;7542;49.078;9.194;2023-07-20T02:40:05;27.70;44.10
14901;DHT22;7542;49.078;9.194;2023-07-20T02:41:09;27.60;44.20
14901;DHT22;7542;49.078;9.194;2023-07-20T02:42:10;27.50;44.20
14901;DHT22;7542;49.078;9.194;2023-07-20T02:43:12;27.40;44.20
14901;DHT22;7542;49.078;9.194;2023-07-20T02:44:14;27.50;44.20
14901;DHT22;7542;49.078;9.194;2023-07-20T02:45:16;27.50;44.20
14901;DHT22;7542;49.078;9.194;2023-07-20T02:46:18;27.50;44.30
14901;DHT22;7542;49.078;9.194;2023-07-20T02:47:20;27.50;44.30
14901;DHT22;7542;49.078;9.194;2023-07-20T02:48:22;27.50;44.30
14901;DHT22;7542;49.078;9.194;2023-07-20T02:49:24;27.50;44.30
14901;DHT22;7542;49.078;9.194;2023-07-20T02:50:26;27.60;44.30
14901;DHT22;7542;49.078;9.194;2023-07-20T02:51:28;27.60;44.40
14901;DHT22;7542;49.078;9.194;2023-07-20T02:52:30;27.50;44.40
14901;DHT22;7542;49.078;9.194;2023-07-20T02:53:33;27.50;44.40
14901;DHT22;7542;49.078;9.194;2023-07-20T02:54:35;27.40;44.40
14901;DHT22;7542;49.078;9.194;2023-07-20T02:55:37;27.40;44.40
14901;DHT22;7542;49.078;9.194;2023-07-20T02:56:39;27.40;44.50
14901;DHT22;7542;49.078;9.194;2023-07-20T02:57:41;27.50;44.50
14901;DHT22;7542;49.078;9.194;2023-07-20T02:58:43;27.40;44.50
14901;DHT22;7542;49.078;9.194;2023-07-20T02:59:47;27.40;44.50
14901;DHT22;7542;49.078;9.194;2023-07-20T03:00:49;27.40;44.50
14901;DHT22;7542;49.078;9.194;2023-07-20T03:01:51;27.40;44.50
14901;DHT22;7542;49.078;9.194;2023-07-20T03:02:53;27.50;44.60
14901;DHT22;7542;49.078;9.194;2023-07-20T03:03:57;27.40;44.60
14901;DHT22;7542;49.078;9.194;2023-07-20T03:04:59;27.40;44.60
14901;DHT22;7542;49.078;9.194;2023-07-20T03:06:03;27.40;44.60
14901;DHT22;7542;49.078;9.194;2023-07-20T03:07:05;27.30;44.60
14901;DHT22;7542;49.078;9.194;2023-07-20T03:08:08;27.40;44.60
14901;DHT22;7542;49.078;9.194;2023-07-20T03:09:10;27.40;44.60
14901;DHT22;7542;49.078;9.194;2023-07-20T03:10:13;27.30;44.70
14901;DHT22;7542;49.078;9.194;2023-07-20T03:11:15;27.30;44.70
14901;DHT22;7542;49.078;9.194;2023-07-20T03:12:17;27.50;44.70
14901;DHT22;7542;49.078;9.194;2023-07-20T03:13:19;27.40;44.70
14901;DHT22;7542;49.078;9.194;2023-07-20T03:14:21;27.30;44.70
14901;DHT22;7542;49.078;9.194;2023-07-20T03:15:25;27.30;44.70
14901;DHT22;7542;49.078;9.194;2023-07-20T03:16:27;27.40;44.80
14901;DHT22;7542;49.078;9.194;2023-07-20T03:17:29;27.30;44.80
14901;DHT22;7542;49.078;9.194;2023-07-20T03:18:33;27.30;44.80
14901;DHT22;7542;49.078;9.194;2023-07-20T03:19:35;27.30;44.80
14901;DHT22;7542;49.078;9.194;2023-07-20T03:20:38;27.30;44.80
14901;DHT22;7542;49.078;9.194;2023-07-20T03:21:40;27.40;44.80
14901;DHT22;7542;49.078;9.194;2023-07-20T03:22:43;27.30;44.80
14901;DHT22;7542;49.078;9.194;2023-07-20T03:23:45;27.30;44.80
14901;DHT22;7542;49.078;9.194;2023-07-20T03:24:47;27.30;44.80
14901;DHT22;7542;49.078;9.194;2023-07-20T03:25:49;27.30;44.90
14901;DHT22;7542;49.078;9.194;2023-07-20T03:26:51;27.30;44.90
14901;DHT22;7542;49.078;9.194;2023-07-20T03:27:53;27.30;44.90
14901;DHT22;7542;49.078;9.194;2023-07-20T03:28:55;27.20;44.90
14901;DHT22;7542;49.078;9.194;2023-07-20T03:29:57;27.20;44.90
14901;DHT22;7542;49.078;9.194;2023-07-20T03:30:59;27.20;44.90
14901;DHT22;7542;49.078;9.194;2023-07-20T03:32:01;27.20;44.90
14901;DHT22;7542;49.078;9.194;2023-07-20T03:33:03;27.20;44.90
14901;DHT22;7542;49.078;9.194;2023-07-20T03:34:05;27.20;45.00
14901;DHT22;7542;49.078;9.194;2023-07-20T03:35:10;27.20;45.00
14901;DHT22;7542;49.078;9.194;2023-07-20T03:36:12;27.20;45.00
14901;DHT22;7542;49.078;9.194;2023-07-20T03:37:14;27.10;45.00
14901;DHT22;7542;49.078;9.194;2023-07-20T03:38:16;27.20;45.00
14901;DHT22;7542;49.078;9.194;2023-07-20T03:39:18;27.10;45.10
14901;DHT22;7542;49.078;9.194;2023-07-20T03:40:20;27.10;45.10
14901;DHT22;7542;49.078;9.194;2023-07-20T03:41:22;27.10;45.10
14901;DHT22;7542;49.078;9.194;2023-07-20T03:42:24;27.10;45.10
14901;DHT22;7542;49.078;9.194;2023-07-20T03:43:27;27.10;45.20
14901;DHT22;7542;49.078;9.194;2023-07-20T03:44:29;27.10;45.20
14901;DHT22;7542;49.078;9.194;2023-07-20T03:45:32;27.00;45.20
14901;DHT22;7542;49.078;9.194;2023-07-20T03:46:34;27.00;45.30
14901;DHT22;7542;49.078;9.194;2023-07-20T03:47:36;27.00;45.30
14901;DHT22;7542;49.078;9.194;2023-07-20T03:48:38;27.00;45.30
14901;DHT22;7542;49.078;9.194;2023-07-20T03:49:40;27.00;45.30
14901;DHT22;7542;49.078;9.194;2023-07-20T03:50:43;27.00;45.30
14901;DHT22;7542;49.078;9.194;2023-07-20T03:51:47;27.00;45.30
14901;DHT22;7542;49.078;9.194;2023-07-20T03:52:49;26.90;44.90
14901;DHT22;7542;49.078;9.194;2023-07-20T03:53:51;26.90;44.90
14901;DHT22;7542;49.078;9.194;2023-07-20T03:54:53;26.90;45.00
14901;DHT22;7542;49.078;9.194;2023-07-20T03:55:55;26.90;45.00
14901;DHT22;7542;49.078;9.194;2023-07-20T03:56:57;26.90;45.00
14901;DHT22;7542;49.078;9.194;2023-07-20T03:58:00;26.90;45.10
14901;DHT22;7542;49.078;9.194;2023-07-20T03:59:03;26.80;45.10
14901;DHT22;7542;49.078;9.194;2023-07-20T04:00:07;26.90;45.10
14901;DHT22;7542;49.078;9.194;2023-07-20T04:01:09;26.80;45.20
14901;DHT22;7542;49.078;9.194;2023-07-20T04:02:11;26.80;45.20
14901;DHT22;7542;49.078;9.194;2023-07-20T04:03:14;26.70;45.20
14901;DHT22;7542;49.078;9.194;2023-07-20T04:04:17;26.70;45.20
14901;DHT22;7542;49.078;9.194;2023-07-20T04:05:19;26.70;45.30
14901;DHT22;7542;49.078;9.194;2023-07-20T04:06:21;26.70;45.30
14901;DHT22;7542;49.078;9.194;2023-07-20T04:07:24;26.70;45.30
14901;DHT22;7542;49.078;9.194;2023-07-20T04:08:27;26.80;45.30
14901;DHT22;7542;49.078;9.194;2023-07-20T04:09:31;26.70;45.40
14901;DHT22;7542;49.078;9.194;2023-07-20T04:10:33;26.70;45.40
14901;DHT22;7542;49.078;9.194;2023-07-20T04:11:36;26.70;45.40
14901;DHT22;7542;49.078;9.194;2023-07-20T04:12:37;26.70;45.50
14901;DHT22;7542;49.078;9.194;2023-07-20T04:13:39;26.80;45.50
14901;DHT22;7542;49.078;9.194;2023-07-20T04:14:41;26.80;45.50
14901;DHT22;7542;49.078;9.194;2023-07-20T04:15:44;26.70;45.50
14901;DHT22;7542;49.078;9.194;2023-07-20T04:16:48;26.80;45.50
14901;DHT22;7542;49.078;9.194;2023-07-20T04:17:50;26.70;45.60
14901;DHT22;7542;49.078;9.194;2023-07-20T04:18:55;26.70;45.60
14901;DHT22;7542;49.078;9.194;2023-07-20T04:19:58;26.70;45.60
14901;DHT22;7542;49.078;9.194;2023-07-20T04:21:00;26.70;45.60
14901;DHT22;7542;49.078;9.194;2023-07-20T04:22:02;26.70;45.60
14901;DHT22;7542;49.078;9.194;2023-07-20T04:23:04;26.70;45.70
14901;DHT22;7542;49.078;9.194;2023-07-20T04:24:06;26.60;45.70
14901;DHT22;7542;49.078;9.194;2023-07-20T04:25:08;26.80;45.70
14901;DHT22;7542;49.078;9.194;2023-07-20T04:26:11;26.80;45.70
14901;DHT22;7542;49.078;9.194;2023-07-20T04:27:14;26.70;45.80
14901;DHT22;7542;49.078;9.194;2023-07-20T04:28:16;26.70;45.80
14901;DHT22;7542;49.078;9.194;2023-07-20T04:29:18;26.70;45.80
14901;DHT22;7542;49.078;9.194;2023-07-20T04:30:20;26.70;45.80
14901;DHT22;7542;49.078;9.194;2023-07-20T04:31:24;26.70;45.80
14901;DHT22;7542;49.078;9.194;2023-07-20T04:32:26;26.70;45.80
14901;DHT22;7542;49.078;9.194;2023-07-20T04:33:28;26.70;45.80
14901;DHT22;7542;49.078;9.194;2023-07-20T04:34:30;26.70;45.80
14901;DHT22;7542;49.078;9.194;2023-07-20T04:35:52;26.70;45.80
14901;DHT22;7542;49.078;9.194;2023-07-20T04:36:56;26.70;45.80
14901;DHT22;7542;49.078;9.194;2023-07-20T04:37:58;26.70;45.80
14901;DHT22;7542;49.078;9.194;2023-07-20T04:39:00;26.60;45.80
14901;DHT22;7542;49.078;9.194;2023-07-20T04:40:02;26.60;45.80
14901;DHT22;7542;49.078;9.194;2023-07-20T04:41:05;26.70;45.80
14901;DHT22;7542;49.078;9.194;2023-07-20T04:42:07;26.70;45.80
14901;DHT22;7542;49.078;9.194;2023-07-20T04:43:09;26.70;45.80
14901;DHT22;7542;49.078;9.194;2023-07-20T04:44:13;26.70;45.90
14901;DHT22;7542;49.078;9.194;2023-07-20T04:45:15;26.60;45.80
14901;DHT22;7542;49.078;9.194;2023-07-20T04:46:20;26.70;45.90
14901;DHT22;7542;49.078;9.194;2023-07-20T04:47:23;26.60;45.90
14901;DHT22;7542;49.078;9.194;2023-07-20T04:48:25;26.60;45.90
14901;DHT22;7542;49.078;9.194;2023-07-20T04:49:27;26.60;45.90
14901;DHT22;7542;49.078;9.194;2023-07-20T04:50:29;26.60;45.90
14901;DHT22;7542;49.078;9.194;2023-07-20T04:51:31;26.60;46.00
14901;DHT22;7542;49.078;9.194;2023-07-20T04:52:33;26.60;46.00
14901;DHT22;7542;49.078;9.194;2023-07-20T04:53:44;26.60;46.00
14901;DHT22;7542;49.078;9.194;2023-07-20T04:54:46;26.60;46.00
14901;DHT22;7542;49.078;9.194;2023-07-20T04:55:49;26.50;46.10
14901;DHT22;7542;49.078;9.194;2023-07-20T04:56:55;26.50;46.10
14901;DHT22;7542;49.078;9.194;2023-07-20T04:57:57;26.50;46.10
14901;DHT22;7542;49.078;9.194;2023-07-20T04:59:00;26.50;46.10
14901;DHT22;7542;49.078;9.194;2023-07-20T05:00:02;26.50;46.20
14901;DHT22;7542;49.078;9.194;2023-07-20T05:01:05;26.50;46.10
14901;DHT22;7542;49.078;9.194;2023-07-20T05:02:07;26.50;46.20
14901;DHT22;7542;49.078;9.194;2023-07-20T05:03:09;26.50;46.20
14901;DHT22;7542;49.078;9.194;2023-07-20T05:04:11;26.50;46.20
14901;DHT22;7542;49.078;9.194;2023-07-20T05:05:13;26.50;46.30
14901;DHT22;7542;49.078;9.194;2023-07-20T05:06:16;26.50;46.30
14901;DHT22;7542;49.078;9.194;2023-07-20T05:07:18;26.50;46.30
14901;DHT22;7542;49.078;9.194;2023-07-20T05:08:20;26.50;46.40
14901;DHT22;7542;49.078;9.194;2023-07-20T05:09:24;26.50;46.40
14901;DHT22;7542;49.078;9.194;2023-07-20T05:10:26;26.50;46.40
14901;DHT22;7542;49.078;9.194;2023-07-20T05:11:28;26.50;46.40
14901;DHT22;7542;49.078;9.194;2023-07-20T05:12:30;26.50;46.40
14901;DHT22;7542;49.078;9.194;2023-07-20T05:13:33;26.50;46.40
14901;DHT22;7542;49.078;9.194;2023-07-20T05:14:35;26.50;46.40
14901;DHT22;7542;49.078;9.194;2023-07-20T05:15:37;26.50;46.40
14901;DHT22;7542;49.078;9.194;2023-07-20T05:16:39;26.50;46.50
14901;DHT22;7542;49.078;9.194;2023-07-20T05:17:43;26.50;46.50
14901;DHT22;7542;49.078;9.194;2023-07-20T05:18:45;26.50;46.50
14901;DHT22;7542;49.078;9.194;2023-07-20T05:19:47;26.50;46.50
14901;DHT22;7542;49.078;9.194;2023-07-20T05:20:50;26.50;46.50
14901;DHT22;7542;49.078;9.194;2023-07-20T05:21:52;26.50;46.50
14901;DHT22;7542;49.078;9.194;2023-07-20T05:22:54;26.60;46.50
14901;DHT22;7542;49.078;9.194;2023-07-20T05:23:57;26.60;46.50
14901;DHT22;7542;49.078;9.194;2023-07-20T05:24:59;26.60;46.50
14901;DHT22;7542;49.078;9.194;2023-07-20T05:26:01;26.70;46.80
14901;DHT22;7542;49.078;9.194;2023-07-20T05:27:03;26.60;47.70
14901;DHT22;7542;49.078;9.194;2023-07-20T05:28:05;26.70;48.00
14901;DHT22;7542;49.078;9.194;2023-07-20T05:29:08;26.60;48.20
14901;DHT22;7542;49.078;9.194;2023-07-20T05:30:10;26.70;48.20
14901;DHT22;7542;49.078;9.194;2023-07-20T05:31:12;26.60;48.10
14901;DHT22;7542;49.078;9.194;2023-07-20T05:32:14;26.60;48.00
14901;DHT22;7542;49.078;9.194;2023-07-20T05:33:16;26.70;48.00
14901;DHT22;7542;49.078;9.194;2023-07-20T05:34:19;26.70;48.00
14901;DHT22;7542;49.078;9.194;2023-07-20T05:35:22;26.70;48.00
14901;DHT22;7542;49.078;9.194;2023-07-20T05:36:24;26.70;48.00
14901;DHT22;7542;49.078;9.194;2023-07-20T05:37:26;26.70;47.90
14901;DHT22;7542;49.078;9.194;2023-07-20T05:38:29;26.80;47.90
14901;DHT22;7542;49.078;9.194;2023-07-20T05:39:32;26.70;47.90
14901;DHT22;7542;49.078;9.194;2023-07-20T05:40:37;26.80;47.90
14901;DHT22;7542;49.078;9.194;2023-07-20T05:41:41;26.70;47.90
14901;DHT22;7542;49.078;9.194;2023-07-20T05:42:43;26.90;47.90
14901;DHT22;7542;49.078;9.194;2023-07-20T05:43:45;26.80;47.80
14901;DHT22;7542;49.078;9.194;2023-07-20T05:44:47;26.80;47.70
14901;DHT22;7542;49.078;9.194;2023-07-20T05:45:49;26.80;47.70
14901;DHT22;7542;49.078;9.194;2023-07-20T05:46:51;26.80;47.70
14901;DHT22;7542;49.078;9.194;2023-07-20T05:47:58;26.80;47.70
14901;DHT22;7542;49.078;9.194;2023-07-20T05:49:00;26.90;47.70
14901;DHT22;7542;49.078;9.194;2023-07-20T05:50:03;26.80;47.80
14901;DHT22;7542;49.078;9.194;2023-07-20T05:51:06;26.80;47.80
14901;DHT22;7542;49.078;9.194;2023-07-20T05:52:08;26.80;47.80
14901;DHT22;7542;49.078;9.194;2023-07-20T05:53:09;26.80;47.90
14901;DHT22;7542;49.078;9.194;2023-07-20T05:54:11;26.80;47.90
14901;DHT22;7542;49.078;9.194;2023-07-20T05:55:14;26.90;47.90
14901;DHT22;7542;49.078;9.194;2023-07-20T05:56:16;26.90;47.90
14901;DHT22;7542;49.078;9.194;2023-07-20T05:57:18;26.90;47.90
14901;DHT22;7542;49.078;9.194;2023-07-20T05:58:20;26.90;47.90
14901;DHT22;7542;49.078;9.194;2023-07-20T05:59:23;26.90;47.90
14901;DHT22;7542;49.078;9.194;2023-07-20T06:00:26;26.90;47.90
14901;DHT22;7542;49.078;9.194;2023-07-20T06:01:28;26.80;47.90
14901;DHT22;7542;49.078;9.194;2023-07-20T06:02:30;26.90;47.90
14901;DHT22;7542;49.078;9.194;2023-07-20T06:03:34;26.90;47.80
14901;DHT22;7542;49.078;9.194;2023-07-20T06:04:37;26.90;47.70
14901;DHT22;7542;49.078;9.194;2023-07-20T06:05:40;26.90;47.70
14901;DHT22;7542;49.078;9.194;2023-07-20T06:06:42;26.70;47.70
14901;DHT22;7542;49.078;9.194;2023-07-20T06:07:43;27.00;48.20
14901;DHT22;7542;49.078;9.194;2023-07-20T06:08:45;27.00;48.30
14901;DHT22;7542;49.078;9.194;2023-07-20T06:09:47;27.00;48.40
14901;DHT22;7542;49.078;9.194;2023-07-20T06:10:50;27.00;48.40
14901;DHT22;7542;49.078;9.194;2023-07-20T06:11:55;27.00;48.40
14901;DHT22;7542;49.078;9.194;2023-07-20T06:12:58;27.00;48.40
14901;DHT22;7542;49.078;9.194;2023-07-20T06:14:00;27.00;48.40
14901;DHT22;7542;49.078;9.194;2023-07-20T06:15:03;27.00;48.40
14901;DHT22;7542;49.078;9.194;2023-07-20T06:16:06;27.00;48.40
14901;DHT22;7542;49.078;9.194;2023-07-20T06:17:08;27.00;48.40
14901;DHT22;7542;49.078;9.194;2023-07-20T06:18:12;27.00;48.40
14901;DHT22;7542;49.078;9.194;2023-07-20T06:19:15;27.00;48.30
14901;DHT22;7542;49.078;9.194;2023-07-20T06:20:17;27.00;48.20
14901;DHT22;7542;49.078;9.194;2023-07-20T06:21:19;27.00;48.10
14901;DHT22;7542;49.078;9.194;2023-07-20T06:22:21;27.00;48.10
14901;DHT22;7542;49.078;9.194;2023-07-20T06:23:24;27.00;48.00
14901;DHT22;7542;49.078;9.194;2023-07-20T06:24:26;27.00;48.10
14901;DHT22;7542;49.078;9.194;2023-07-20T06:25:28;25.30;47.10
14901;DHT22;7542;49.078;9.194;2023-07-20T06:26:30;27.00;48.00
14901;DHT22;7542;49.078;9.194;2023-07-20T06:27:32;27.00;48.00
14901;DHT22;7542;49.078;9.194;2023-07-20T06:28:34;27.10;47.90
14901;DHT22;7542;49.078;9.194;2023-07-20T06:29:36;27.10;47.90
14901;DHT22;7542;49.078;9.194;2023-07-20T06:30:38;27.20;47.80
14901;DHT22;7542;49.078;9.194;2023-07-20T06:31:41;27.10;47.80
14901;DHT22;7542;49.078;9.194;2023-07-20T06:32:43;27.10;47.80
14901;DHT22;7542;49.078;9.194;2023-07-20T06:33:45;27.20;47.70
14901;DHT22;7542;49.078;9.194;2023-07-20T06:34:47;27.20;47.70
14901;DHT22;7542;49.078;9.194;2023-07-20T06:35:50;27.20;47.60
14901;DHT22;7542;49.078;9.194;2023-07-20T06:36:54;27.20;47.60
14901;DHT22;7542;49.078;9.194;2023-07-20T06:37:56;27.20;47.40
14901;DHT22;7542;49.078;9.194;2023-07-20T06:39:19;27.30;47.50
14901;DHT22;7542;49.078;9.194;2023-07-20T06:40:23;27.30;47.40
14901;DHT22;7542;49.078;9.194;2023-07-20T06:41:28;27.30;47.40
14901;DHT22;7542;49.078;9.194;2023-07-20T06:42:33;27.30;47.40
14901;DHT22;7542;49.078;9.194;2023-07-20T06:43:38;27.40;47.30
14901;DHT22;7542;49.078;9.194;2023-07-20T06:44:43;27.30;47.30
14901;DHT22;7542;49.078;9.194;2023-07-20T06:45:45;27.30;47.20
14901;DHT22;7542;49.078;9.194;2023-07-20T06:46:53;27.30;47.20
14901;DHT22;7542;49.078;9.194;2023-07-20T06:47:55;27.40;47.20
14901;DHT22;7542;49.078;9.194;2023-07-20T06:48:57;27.40;47.20
14901;DHT22;7542;49.078;9.194;2023-07-20T06:50:02;27.40;47.20
14901;DHT22;7542;49.078;9.194;2023-07-20T06:51:04;27.40;47.10
14901;DHT22;7542;49.078;9.194;2023-07-20T06:52:07;27.40;47.10
14901;DHT22;7542;49.078;9.194;2023-07-20T06:53:09;27.50;47.00
14901;DHT22;7542;49.078;9.194;2023-07-20T06:54:11;27.50;46.90
14901;DHT22;7542;49.078;9.194;2023-07-20T06:55:13;27.50;46.90